Time;durP1;ratioP1;P1;durP2;ratioP2;P2;SDS_P1;SDS_P2;PMS_P1;PMS_P2;Temp;Humidity;BMP_temperature;BMP_pressure;BME280_temperature;BME280_humidity;BME280_pressure;Samples;Min_cycle;Max_cycle;Signal;HPM_P1;HPM_P2
2023/07/26 00:01:11;;;;;;;3.38;1.42;;;14.30;99.90;;;;;;5040816;28;20466;-73
2023/07/26 00:03:37;;;;;;;4.35;1.90;;;14.20;99.90;;;;;;5005479;28;20037;-72
2023/07/26 00:06:02;;;;;;;4.03;1.90;;;14.20;99.90;;;;;;5025049;28;20477;-72
2023/07/26 00:08:28;;;;;;;4.40;1.60;;;14.20;99.90;;;;;;5027235;28;20051;-72
2023/07/26 00:10:54;;;;;;;4.43;1.90;;;14.20;99.90;;;;;;5033168;28;20051;-73
2023/07/26 00:13:20;;;;;;;3.60;1.50;;;14.20;99.90;;;;;;5028600;28;20036;-72
2023/07/26 00:15:45;;;;;;;5.20;2.07;;;14.20;99.90;;;;;;5031542;28;20778;-72
2023/07/26 00:18:11;;;;;;;3.03;1.88;;;14.20;99.90;;;;;;5012165;28;20705;-72
2023/07/26 00:20:37;;;;;;;3.15;1.65;;;14.20;99.90;;;;;;5010709;28;20037;-72
2023/07/26 00:23:03;;;;;;;2.97;1.38;;;14.20;99.90;;;;;;5006669;28;20052;-72
2023/07/26 00:25:29;;;;;;;2.67;1.85;;;14.20;99.90;;;;;;5024767;28;20084;-72
2023/07/26 00:27:54;;;;;;;4.07;1.90;;;14.20;99.90;;;;;;5023757;28;20041;-72
2023/07/26 00:30:25;;;;;;;4.35;1.75;;;14.20;99.90;;;;;;5030871;28;20053;-72
2023/07/26 00:32:51;;;;;;;4.50;1.77;;;14.20;99.90;;;;;;5022099;28;20077;-72
2023/07/26 00:35:21;;;;;;;3.38;1.60;;;14.20;99.90;;;;;;5023362;28;20166;-72
2023/07/26 00:37:48;;;;;;;5.55;1.80;;;14.20;99.90;;;;;;5031877;28;20053;-72
2023/07/26 00:40:13;;;;;;;5.60;1.67;;;14.20;99.90;;;;;;5044613;28;20076;-72
2023/07/26 00:42:39;;;;;;;3.13;1.52;;;14.20;99.90;;;;;;5044619;28;20614;-72
2023/07/26 00:45:07;;;;;;;2.00;1.00;;;14.20;99.90;;;;;;5027374;28;20048;-72
2023/07/26 00:47:33;;;;;;;4.10;1.50;;;14.20;99.90;;;;;;5028758;28;20719;-72
2023/07/26 00:49:59;;;;;;;4.50;1.40;;;14.10;99.90;;;;;;5029753;28;20037;-72
2023/07/26 00:52:25;;;;;;;4.93;1.50;;;14.10;99.90;;;;;;5027378;28;20448;-72
2023/07/26 00:54:55;;;;;;;;;;;14.10;99.90;;;;;;5028880;28;20064;-72
2023/07/26 00:57:21;;;;;;;3.70;1.45;;;14.00;99.90;;;;;;5040106;28;19920;-72
2023/07/26 00:59:47;;;;;;;2.35;1.52;;;14.10;99.90;;;;;;5032921;28;20093;-72
2023/07/26 01:02:12;;;;;;;4.20;1.30;;;14.10;99.90;;;;;;5025980;28;20109;-72
2023/07/26 01:04:38;;;;;;;3.33;1.90;;;14.10;99.90;;;;;;5047748;28;20114;-72
2023/07/26 01:07:20;;;;;;;3.92;1.95;;;14.10;99.90;;;;;;5026960;28;20135;-72
2023/07/26 01:10:21;;;;;;;5.47;2.05;;;14.10;99.90;;;;;;5028195;28;20051;-72
2023/07/26 01:12:59;;;;;;;3.13;1.63;;;14.00;99.90;;;;;;4999655;28;20403;-72
2023/07/26 01:15:30;;;;;;;3.33;1.65;;;14.00;99.90;;;;;;5032639;28;20071;-73
2023/07/26 01:18:12;;;;;;;4.13;1.75;;;14.00;99.90;;;;;;5031377;28;20045;-72
2023/07/26 01:20:38;;;;;;;8.77;1.70;;;14.00;99.90;;;;;;5028434;28;20131;-72
2023/07/26 01:23:04;;;;;;;4.57;1.77;;;14.00;99.90;;;;;;5037769;28;20496;-71
2023/07/26 01:25:30;;;;;;;5.97;2.03;;;14.00;99.90;;;;;;5030590;28;20063;-71
2023/07/26 01:27:56;;;;;;;3.35;2.08;;;14.00;99.90;;;;;;5036546;28;20040;-71
2023/07/26 01:30:22;;;;;;;8.07;2.25;;;14.10;99.90;;;;;;5028947;28;20045;-72
2023/07/26 01:32:52;;;;;;;3.08;1.85;;;14.00;99.90;;;;;;5047396;28;20041;-71
2023/07/26 01:35:20;;;;;;;2.95;1.38;;;14.10;99.90;;;;;;5024268;28;20407;-72
2023/07/26 01:37:46;;;;;;;6.15;1.67;;;14.00;99.90;;;;;;5047212;28;20044;-71
2023/07/26 01:40:13;;;;;;;3.28;1.38;;;14.10;99.90;;;;;;5027509;28;20108;-72
2023/07/26 01:42:39;;;;;;;;;;;14.10;99.90;;;;;;5039440;28;20064;-71
2023/07/26 01:45:05;;;;;;;2.53;1.58;;;14.10;99.90;;;;;;5032353;28;20007;-72
2023/07/26 01:47:31;;;;;;;5.55;2.10;;;14.10;99.90;;;;;;5045627;28;20592;-71
2023/07/26 01:49:56;;;;;;;3.03;1.70;;;14.00;99.90;;;;;;5040981;28;20047;-71
2023/07/26 01:52:23;;;;;;;3.92;1.23;;;14.10;99.90;;;;;;5024702;28;20117;-71
2023/07/26 01:54:49;;;;;;;4.68;1.67;;;14.10;99.90;;;;;;5018238;28;20037;-71
2023/07/26 01:57:15;;;;;;;2.70;1.20;;;14.00;99.90;;;;;;5038338;28;20056;-71
2023/07/26 01:59:40;;;;;;;4.18;1.73;;;14.00;99.90;;;;;;5024967;28;20094;-71
2023/07/26 02:02:06;;;;;;;3.42;1.92;;;14.00;99.90;;;;;;5026814;28;20135;-72
2023/07/26 02:04:32;;;;;;;4.38;1.70;;;14.00;99.90;;;;;;5031526;28;20061;-71
2023/07/26 02:06:57;;;;;;;5.10;1.88;;;13.90;99.90;;;;;;5035509;28;20329;-71
2023/07/26 02:09:23;;;;;;;5.43;2.20;;;14.00;99.90;;;;;;5027566;28;20052;-71
2023/07/26 02:11:49;;;;;;;3.85;1.90;;;13.90;99.90;;;;;;5028127;28;20044;-71
2023/07/26 02:14:16;;;;;;;5.55;2.00;;;13.90;99.90;;;;;;5134773;22;20056;-67
2023/07/26 02:16:41;;;;;;;4.60;1.80;;;13.80;99.90;;;;;;5028917;28;20068;-67
2023/07/26 02:19:10;;;;;;;3.85;1.58;;;13.80;99.90;;;;;;5039618;28;20074;-68
2023/07/26 02:21:36;;;;;;;2.90;1.70;;;13.80;99.90;;;;;;5068267;28;20045;-67
2023/07/26 02:24:01;;;;;;;3.00;1.80;;;13.80;99.90;;;;;;5056827;28;20490;-67
2023/07/26 02:26:27;;;;;;;5.00;2.10;;;13.80;99.90;;;;;;5052594;28;20136;-67
2023/07/26 02:28:53;;;;;;;3.77;1.93;;;13.80;99.90;;;;;;5055913;28;20200;-67
2023/07/26 02:31:18;;;;;;;6.80;2.57;;;13.70;99.90;;;;;;5045641;28;20293;-68
2023/07/26 02:33:44;;;;;;;5.00;2.83;;;13.70;99.90;;;;;;5049845;28;20048;-67
2023/07/26 02:36:10;;;;;;;3.87;2.13;;;13.70;99.90;;;;;;5059301;28;20044;-67
2023/07/26 02:38:35;;;;;;;4.82;2.25;;;13.70;99.90;;;;;;5068224;28;20293;-67
2023/07/26 02:41:01;;;;;;;6.40;2.40;;;13.70;99.90;;;;;;5048728;28;20534;-68
2023/07/26 02:43:27;;;;;;;5.18;2.78;;;13.70;99.90;;;;;;5066319;28;20545;-68
2023/07/26 02:45:52;;;;;;;3.63;1.90;;;13.70;99.90;;;;;;5055460;28;20275;-67
2023/07/26 02:48:18;;;;;;;4.07;2.20;;;13.70;99.90;;;;;;5045448;28;20048;-67
2023/07/26 02:50:44;;;;;;;3.75;1.73;;;13.70;99.90;;;;;;5057681;28;20052;-67
2023/07/26 02:53:09;;;;;;;4.20;1.90;;;13.70;99.90;;;;;;5071878;28;20516;-67
2023/07/26 02:55:35;;;;;;;4.13;2.20;;;13.60;99.90;;;;;;5067499;28;20037;-67
2023/07/26 02:58:01;;;;;;;6.33;1.97;;;13.70;99.90;;;;;;5052068;28;20293;-67
2023/07/26 03:00:27;;;;;;;3.08;1.90;;;13.60;99.90;;;;;;5062976;28;20085;-68
2023/07/26 03:02:52;;;;;;;4.65;1.67;;;13.70;99.90;;;;;;5050759;28;20513;-68
2023/07/26 03:05:18;;;;;;;4.20;2.05;;;13.60;99.90;;;;;;5052818;28;20072;-67
2023/07/26 03:07:43;;;;;;;3.80;1.83;;;13.60;99.90;;;;;;5035401;28;20070;-67
2023/07/26 03:10:09;;;;;;;3.47;2.00;;;13.60;99.90;;;;;;5048067;28;20278;-68
2023/07/26 03:12:35;;;;;;;4.80;2.00;;;13.60;99.90;;;;;;5048005;28;20053;-67
2023/07/26 03:15:00;;;;;;;5.07;2.05;;;13.50;99.90;;;;;;5035214;28;20138;-68
2023/07/26 03:17:26;;;;;;;7.00;2.70;;;13.50;99.90;;;;;;5051414;28;20051;-67
2023/07/26 03:19:52;;;;;;;4.43;1.90;;;13.50;99.90;;;;;;5049216;28;20692;-67
2023/07/26 03:22:17;;;;;;;6.47;2.10;;;13.50;99.90;;;;;;5067913;28;20336;-67
2023/07/26 03:24:43;;;;;;;3.80;1.50;;;13.40;99.90;;;;;;5053753;28;20055;-67
2023/07/26 03:27:12;;;;;;;5.23;1.60;;;13.40;99.90;;;;;;5053956;28;20331;-67
2023/07/26 03:29:37;;;;;;;4.55;1.70;;;13.40;99.90;;;;;;5050380;28;20683;-67
2023/07/26 03:32:03;;;;;;;3.40;1.20;;;13.40;99.90;;;;;;5049794;28;20033;-67
2023/07/26 03:34:29;;;;;;;2.38;1.30;;;13.40;99.90;;;;;;5048092;28;20301;-67
2023/07/26 03:36:54;;;;;;;4.28;1.55;;;13.40;99.90;;;;;;5068039;28;20040;-67
2023/07/26 03:39:20;;;;;;;4.63;1.63;;;13.50;99.90;;;;;;5066241;28;20036;-72
2023/07/26 03:41:46;;;;;;;2.42;1.13;;;13.50;99.90;;;;;;5054571;28;20770;-68
2023/07/26 03:44:11;;;;;;;2.73;1.00;;;13.50;99.90;;;;;;5048024;28;20516;-67
2023/07/26 03:46:37;;;;;;;3.28;1.10;;;13.50;99.90;;;;;;5044495;28;20056;-67
2023/07/26 03:49:03;;;;;;;2.50;1.27;;;13.50;99.90;;;;;;5045479;28;20054;-67
2023/07/26 03:51:28;;;;;;;2.67;1.15;;;13.50;99.90;;;;;;5037665;28;20293;-67
2023/07/26 03:53:54;;;;;;;3.85;1.08;;;13.50;99.90;;;;;;5048403;28;20090;-67
2023/07/26 03:56:20;;;;;;;1.85;0.80;;;13.50;99.90;;;;;;5064540;28;20467;-67
2023/07/26 03:58:45;;;;;;;5.53;1.77;;;13.40;99.90;;;;;;5050328;28;20048;-67
2023/07/26 04:01:11;;;;;;;2.00;1.00;;;13.40;99.90;;;;;;5047531;28;20281;-68
2023/07/26 04:03:37;;;;;;;2.17;0.83;;;13.40;99.90;;;;;;5066293;28;20289;-68
2023/07/26 04:06:02;;;;;;;2.70;1.27;;;13.50;99.90;;;;;;5060433;28;20047;-67
2023/07/26 04:08:28;;;;;;;2.33;0.90;;;13.40;99.90;;;;;;5051851;28;20048;-68
2023/07/26 04:10:53;;;;;;;4.10;1.20;;;13.40;99.90;;;;;;5054338;28;20477;-67
2023/07/26 04:13:21;;;;;;;2.47;1.27;;;13.40;99.90;;;;;;5054634;28;20037;-67
2023/07/26 04:15:47;;;;;;;4.03;1.42;;;13.40;99.90;;;;;;5047279;28;20297;-67
2023/07/26 04:18:12;;;;;;;5.13;1.70;;;13.40;99.90;;;;;;5050314;28;20386;-71
2023/07/26 04:20:38;;;;;;;1.92;0.85;;;13.40;99.90;;;;;;5050030;28;20079;-67
2023/07/26 04:23:04;;;;;;;3.45;1.60;;;13.40;99.90;;;;;;5051274;28;20552;-68
2023/07/26 04:25:29;;;;;;;3.40;1.60;;;13.40;99.90;;;;;;5046634;28;20131;-67
2023/07/26 04:27:55;;;;;;;3.23;1.30;;;13.40;99.90;;;;;;5052833;28;20040;-68
2023/07/26 04:30:21;;;;;;;2.50;1.08;;;13.40;99.90;;;;;;5047810;28;20055;-67
2023/07/26 04:32:46;;;;;;;4.60;1.13;;;13.40;99.90;;;;;;5050412;28;20101;-67
2023/07/26 04:35:12;;;;;;;5.07;1.30;;;13.40;99.90;;;;;;5046273;28;20136;-67
2023/07/26 04:37:38;;;;;;;3.03;1.17;;;13.50;99.90;;;;;;5066942;28;20102;-68
2023/07/26 04:40:03;;;;;;;4.68;1.33;;;13.50;99.90;;;;;;5046548;28;20339;-67
2023/07/26 04:42:29;;;;;;;1.67;0.80;;;13.50;99.90;;;;;;5066173;28;20565;-67
2023/07/26 04:44:55;;;;;;;6.43;0.90;;;13.50;99.90;;;;;;5047380;28;20178;-68
2023/07/26 04:47:22;;;;;;;1.57;0.90;;;13.60;99.90;;;;;;5050218;28;20662;-68
2023/07/26 04:49:48;;;;;;;2.22;0.80;;;13.50;99.90;;;;;;5067706;28;20059;-68
2023/07/26 04:52:13;;;;;;;4.57;1.20;;;13.60;99.90;;;;;;5050041;28;20036;-67
2023/07/26 04:54:39;;;;;;;2.43;1.33;;;13.60;99.90;;;;;;5067220;28;20037;-68
2023/07/26 04:57:05;;;;;;;3.10;1.50;;;13.60;99.90;;;;;;5067043;28;20892;-68
2023/07/26 04:59:30;;;;;;;2.38;0.82;;;13.60;99.90;;;;;;5048200;28;20044;-68
2023/07/26 05:01:56;;;;;;;2.55;1.08;;;13.60;99.90;;;;;;5066094;28;20086;-67
2023/07/26 05:04:22;;;;;;;3.07;1.13;;;13.60;99.90;;;;;;5057618;28;20485;-68
2023/07/26 05:06:48;;;;;;;3.23;1.03;;;13.60;99.90;;;;;;5049478;28;20635;-68
2023/07/26 05:09:13;;;;;;;4.80;0.75;;;13.60;99.90;;;;;;5047159;28;20040;-68
2023/07/26 05:11:39;;;;;;;1.57;0.87;;;13.60;99.90;;;;;;5066126;28;20051;-68
2023/07/26 05:14:05;;;;;;;3.40;0.77;;;13.60;99.90;;;;;;5067284;28;20511;-68
2023/07/26 05:16:30;;;;;;;2.88;0.80;;;13.60;99.90;;;;;;5048687;28;20056;-68
2023/07/26 05:18:57;;;;;;;2.55;1.15;;;13.60;99.90;;;;;;5055425;28;20627;-68
2023/07/26 05:21:24;;;;;;;2.33;0.95;;;13.60;99.90;;;;;;5048809;28;20072;-68
2023/07/26 05:23:50;;;;;;;3.95;0.90;;;13.60;99.90;;;;;;5047034;28;20127;-68
2023/07/26 05:26:18;;;;;;;2.97;0.80;;;13.60;99.90;;;;;;5050093;28;20561;-68
2023/07/26 05:28:44;;;;;;;3.53;0.90;;;13.70;99.90;;;;;;5065620;28;20040;-67
2023/07/26 05:31:10;;;;;;;4.57;0.98;;;13.60;99.90;;;;;;5053033;28;20097;-68
2023/07/26 05:33:35;;;;;;;1.88;0.90;;;13.70;99.90;;;;;;5052406;28;20095;-68
2023/07/26 05:36:01;;;;;;;2.07;0.80;;;13.70;99.90;;;;;;5048200;28;20086;-68
2023/07/26 05:38:27;;;;;;;2.97;1.17;;;13.60;99.90;;;;;;5031131;28;20805;-68
2023/07/26 05:40:52;;;;;;;2.30;0.85;;;13.70;99.90;;;;;;5045122;28;20040;-67
2023/07/26 05:43:18;;;;;;;4.35;0.73;;;13.70;99.90;;;;;;5049619;28;20044;-67
2023/07/26 05:45:44;;;;;;;3.08;1.48;;;13.70;99.90;;;;;;5063605;28;20482;-68
2023/07/26 05:48:10;;;;;;;1.67;0.90;;;13.70;99.90;;;;;;5063345;28;20032;-67
2023/07/26 05:50:36;;;;;;;4.65;1.13;;;13.70;99.90;;;;;;5051431;28;20075;-67
2023/07/26 05:53:02;;;;;;;2.85;1.30;;;13.70;99.90;;;;;;5055707;28;20028;-67
2023/07/26 05:55:27;;;;;;;1.70;0.82;;;13.70;99.90;;;;;;5051478;28;20094;-66
2023/07/26 05:57:53;;;;;;;4.13;1.38;;;13.70;99.90;;;;;;5069059;28;20094;-69
2023/07/26 06:00:20;;;;;;;4.55;1.15;;;13.70;99.90;;;;;;5049356;28;20053;-68
2023/07/26 06:02:45;;;;;;;4.07;1.52;;;13.70;99.90;;;;;;5054529;28;20033;-70
2023/07/26 06:05:11;;;;;;;3.67;1.20;;;13.70;99.90;;;;;;5051964;28;20044;-71
2023/07/26 06:07:37;;;;;;;2.83;1.13;;;13.70;99.90;;;;;;5052559;28;20301;-67
2023/07/26 06:10:03;;;;;;;3.03;1.30;;;13.70;99.90;;;;;;5051599;28;20081;-68
2023/07/26 06:12:29;;;;;;;3.38;0.90;;;13.70;99.90;;;;;;5067056;28;20127;-70
2023/07/26 06:14:55;;;;;;;2.60;1.02;;;13.70;99.90;;;;;;5051523;28;20546;-69
2023/07/26 06:17:23;;;;;;;2.97;1.00;;;13.70;99.90;;;;;;5037596;28;20399;-71
2023/07/26 06:19:51;;;;;;;2.40;1.08;;;13.70;99.90;;;;;;5053103;28;20033;-68
2023/07/26 06:22:17;;;;;;;2.60;0.90;;;13.70;99.90;;;;;;5050158;28;20379;-68
2023/07/26 06:24:44;;;;;;;6.53;1.10;;;13.70;99.90;;;;;;5053473;28;20262;-68
2023/07/26 06:27:12;;;;;;;2.42;1.23;;;13.70;99.90;;;;;;5032536;28;20047;-68
2023/07/26 06:29:38;;;;;;;7.40;1.45;;;13.60;99.90;;;;;;5061700;28;20048;-68
2023/07/26 06:32:04;;;;;;;2.40;1.27;;;13.60;99.90;;;;;;5048924;28;20037;-68
2023/07/26 06:34:30;;;;;;;5.55;1.02;;;13.60;99.90;;;;;;5049217;28;20094;-68
2023/07/26 06:36:55;;;;;;;3.13;1.10;;;13.60;99.90;;;;;;5045125;28;20048;-69
2023/07/26 06:39:21;;;;;;;4.88;1.30;;;13.50;99.90;;;;;;5053135;28;20369;-68
2023/07/26 06:41:47;;;;;;;2.70;1.25;;;13.60;99.90;;;;;;5049120;28;20446;-69
2023/07/26 06:44:15;;;;;;;3.40;1.33;;;13.50;99.90;;;;;;5047109;28;20064;-68
2023/07/26 06:46:41;;;;;;;1.77;1.02;;;13.50;99.90;;;;;;5066160;28;20040;-68
2023/07/26 06:49:07;;;;;;;3.15;1.10;;;13.50;99.90;;;;;;5063875;28;20033;-69
2023/07/26 06:51:32;;;;;;;5.00;1.30;;;13.50;99.90;;;;;;5048060;28;20044;-68
2023/07/26 06:53:58;;;;;;;2.72;1.08;;;13.50;99.90;;;;;;5044606;28;20413;-68
2023/07/26 06:56:24;;;;;;;3.17;1.50;;;13.50;99.90;;;;;;5052926;28;20166;-69
2023/07/26 06:58:51;;;;;;;1.73;0.95;;;13.50;99.90;;;;;;5043204;28;20039;-68
2023/07/26 07:01:17;;;;;;;1.75;0.93;;;13.50;99.90;;;;;;5047645;28;20063;-68
2023/07/26 07:03:43;;;;;;;2.80;1.10;;;13.50;99.90;;;;;;5050520;28;20041;-68
2023/07/26 07:06:08;;;;;;;4.72;1.10;;;13.50;99.90;;;;;;5050636;28;20075;-68
2023/07/26 07:08:34;;;;;;;4.10;1.37;;;13.50;99.90;;;;;;5051963;28;20067;-68
2023/07/26 07:11:00;;;;;;;2.23;1.10;;;13.60;99.90;;;;;;5052463;28;20567;-69
2023/07/26 07:13:25;;;;;;;2.03;0.87;;;13.60;99.90;;;;;;5045007;28;20824;-68
2023/07/26 07:15:51;;;;;;;1.90;0.80;;;13.60;99.90;;;;;;5053550;28;20870;-68
2023/07/26 07:18:17;;;;;;;2.40;1.17;;;13.60;99.90;;;;;;5052627;28;20683;-68
2023/07/26 07:20:43;;;;;;;2.78;1.25;;;13.60;99.90;;;;;;5049189;28;20483;-68
2023/07/26 07:23:09;;;;;;;4.15;1.75;;;13.60;99.90;;;;;;5052652;28;20097;-68
2023/07/26 07:25:38;;;;;;;4.55;1.30;;;13.60;99.90;;;;;;5043934;28;20059;-68
2023/07/26 07:28:04;;;;;;;2.75;1.50;;;13.60;99.90;;;;;;5062117;28;20048;-68
2023/07/26 07:30:32;;;;;;;4.18;1.63;;;13.60;99.90;;;;;;5046884;28;20067;-68
2023/07/26 07:32:57;;;;;;;4.65;1.73;;;13.60;99.90;;;;;;5044685;28;20056;-68
2023/07/26 07:35:23;;;;;;;4.93;2.47;;;13.60;99.90;;;;;;5032924;28;20484;-68
2023/07/26 07:37:49;;;;;;;3.95;1.85;;;13.60;99.90;;;;;;5042768;28;20045;-68
2023/07/26 07:40:14;;;;;;;3.40;1.67;;;13.60;99.90;;;;;;5048195;28;20086;-68
2023/07/26 07:42:40;;;;;;;3.47;1.52;;;13.70;99.90;;;;;;5048710;28;20033;-67
2023/07/26 07:45:06;;;;;;;6.05;1.67;;;13.70;99.90;;;;;;5031431;28;20044;-68
2023/07/26 07:47:32;;;;;;;;;;;13.80;99.90;;;;;;5043502;28;20036;-68
2023/07/26 07:49:57;;;;;;;2.83;1.13;;;13.90;99.90;;;;;;5051705;28;19928;-68
2023/07/26 07:52:23;;;;;;;2.97;1.60;;;13.90;99.90;;;;;;5050893;28;20363;-68
2023/07/26 07:54:49;;;;;;;3.53;1.10;;;14.00;99.90;;;;;;5048912;28;20696;-68
2023/07/26 07:57:16;;;;;;;1.95;1.13;;;14.00;99.90;;;;;;5049491;28;20051;-68
2023/07/26 07:59:42;;;;;;;3.33;1.05;;;14.00;99.90;;;;;;5059098;28;20075;-68
2023/07/26 08:02:07;;;;;;;2.35;1.25;;;14.10;99.90;;;;;;5062364;28;20494;-68
2023/07/26 08:04:37;;;;;;;2.10;1.23;;;14.20;99.90;;;;;;5043643;28;20053;-68
2023/07/26 08:07:02;;;;;;;3.92;1.20;;;14.20;99.90;;;;;;5048563;28;20431;-68
2023/07/26 08:09:28;;;;;;;2.10;1.02;;;14.30;99.90;;;;;;5067173;28;20044;-68
2023/07/26 08:11:54;;;;;;;2.40;1.00;;;14.30;99.90;;;;;;5051140;28;20052;-69
2023/07/26 08:14:19;;;;;;;2.40;1.13;;;14.40;99.90;;;;;;5030811;28;20663;-69
2023/07/26 08:16:45;;;;;;;2.50;0.90;;;14.40;99.90;;;;;;5045570;28;20642;-68
2023/07/26 08:19:11;;;;;;;2.20;1.10;;;14.50;99.90;;;;;;5066632;28;20051;-69
2023/07/26 08:21:36;;;;;;;1.80;0.98;;;14.50;99.90;;;;;;5067912;28;20078;-69
2023/07/26 08:24:02;;;;;;;2.30;1.15;;;14.50;99.90;;;;;;5049443;28;20036;-68
2023/07/26 08:26:27;;;;;;;2.17;1.08;;;14.50;99.90;;;;;;5047994;28;20048;-69
2023/07/26 08:28:53;;;;;;;3.47;1.48;;;14.50;99.90;;;;;;5032331;28;20033;-69
2023/07/26 08:31:19;;;;;;;2.58;1.50;;;14.50;99.90;;;;;;5048974;28;20052;-69
2023/07/26 08:33:44;;;;;;;2.83;0.98;;;14.50;99.90;;;;;;5068037;28;20028;-69
2023/07/26 08:36:10;;;;;;;3.63;1.90;;;14.50;99.90;;;;;;5069221;28;20052;-69
2023/07/26 08:38:36;;;;;;;2.47;1.10;;;14.60;99.90;;;;;;5048346;28;20082;-68
2023/07/26 08:41:02;;;;;;;2.38;1.30;;;14.60;99.90;;;;;;5064861;28;20174;-69
2023/07/26 08:43:31;;;;;;;2.78;1.52;;;14.70;99.90;;;;;;5051342;28;20037;-69
2023/07/26 08:46:00;;;;;;;3.83;1.77;;;14.80;99.90;;;;;;5048877;28;20524;-69
2023/07/26 08:48:27;;;;;;;3.10;1.40;;;15.00;99.90;;;;;;5049398;28;20199;-69
2023/07/26 08:50:53;;;;;;;4.07;1.70;;;15.10;99.90;;;;;;5049237;28;20044;-69
2023/07/26 08:53:19;;;;;;;5.85;1.90;;;15.20;99.90;;;;;;5064874;28;20036;-69
2023/07/26 08:55:45;;;;;;;3.40;1.88;;;15.40;99.90;;;;;;5047287;28;20048;-69
2023/07/26 08:58:11;;;;;;;4.43;1.98;;;15.50;99.90;;;;;;5048621;28;20040;-69
2023/07/26 09:00:37;;;;;;;4.50;2.10;;;15.60;99.90;;;;;;5064867;28;20049;-69
2023/07/26 09:03:06;;;;;;;3.95;2.15;;;15.70;99.90;;;;;;5069959;28;20044;-69
2023/07/26 09:05:32;;;;;;;4.10;2.25;;;15.70;99.90;;;;;;5043815;28;20040;-69
2023/07/26 09:07:58;;;;;;;4.47;1.73;;;15.70;99.90;;;;;;5050929;28;20123;-69
2023/07/26 09:10:28;;;;;;;3.08;1.80;;;15.60;99.90;;;;;;5061915;28;20127;-69
2023/07/26 09:13:14;;;;;;;3.08;1.40;;;15.50;99.90;;;;;;5051463;28;20402;-69
2023/07/26 09:15:42;;;;;;;3.38;1.40;;;15.40;99.90;;;;;;5065382;28;20035;-69
2023/07/26 09:18:08;;;;;;;2.67;1.50;;;15.40;99.90;;;;;;5068934;28;20072;-69
2023/07/26 09:20:35;;;;;;;4.20;1.90;;;15.50;99.90;;;;;;5047905;28;20048;-69
2023/07/26 09:23:10;;;;;;;2.83;1.45;;;15.60;99.90;;;;;;5057156;28;20036;-69
2023/07/26 09:25:39;;;;;;;4.55;1.40;;;15.60;99.90;;;;;;5050545;28;20629;-69
2023/07/26 09:28:09;;;;;;;3.40;1.33;;;15.70;99.90;;;;;;5050870;28;20409;-69
2023/07/26 09:30:41;;;;;;;3.38;1.35;;;15.90;99.90;;;;;;5052155;28;20082;-69
2023/07/26 09:33:09;;;;;;;3.15;1.35;;;15.90;99.90;;;;;;5065872;28;20146;-69
2023/07/26 09:35:49;;;;;;;4.53;1.38;;;16.00;99.90;;;;;;5047213;28;20086;-69
2023/07/26 09:38:25;;;;;;;2.83;1.17;;;16.10;99.90;;;;;;5044638;28;20045;-69
2023/07/26 09:40:51;;;;;;;2.47;1.02;;;16.20;99.90;;;;;;5045088;28;20036;-69
2023/07/26 09:43:30;;;;;;;4.32;1.20;;;16.30;99.90;;;;;;5066861;28;20126;-68
2023/07/26 09:46:03;;;;;;;2.45;0.90;;;16.50;99.90;;;;;;5042963;28;20040;-69
2023/07/26 09:48:28;;;;;;;2.83;1.38;;;16.70;99.90;;;;;;5044737;28;20421;-69
2023/07/26 09:50:56;;;;;;;2.10;1.10;;;16.70;99.90;;;;;;5052659;28;20046;-69
2023/07/26 09:53:25;;;;;;;2.40;0.88;;;16.80;99.90;;;;;;5053669;28;20044;-69
2023/07/26 09:55:51;;;;;;;1.50;0.80;;;16.80;99.90;;;;;;5051269;28;20047;-69
2023/07/26 09:58:19;;;;;;;2.30;1.00;;;16.80;99.90;;;;;;5049735;28;20036;-68
2023/07/26 10:00:48;;;;;;;2.63;1.10;;;16.70;99.90;;;;;;5056721;28;20044;-68
2023/07/26 10:03:18;;;;;;;2.45;1.15;;;16.60;99.90;;;;;;5048278;28;20040;-69
2023/07/26 10:05:46;;;;;;;2.10;0.90;;;16.50;99.90;;;;;;5066791;28;20048;-68
2023/07/26 10:08:13;;;;;;;4.97;0.90;;;16.50;99.90;;;;;;5046970;28;20092;-68
2023/07/26 10:10:41;;;;;;;2.22;1.00;;;16.60;99.90;;;;;;5055071;28;20052;-69
2023/07/26 10:13:09;;;;;;;3.67;1.50;;;16.80;99.90;;;;;;5051643;28;20078;-69
2023/07/26 10:15:36;;;;;;;2.28;1.10;;;16.80;99.90;;;;;;5051000;28;20513;-69
2023/07/26 10:18:01;;;;;;;;;;;16.80;99.90;;;;;;5053720;28;20052;-69
2023/07/26 10:20:27;;;;;;;2.50;1.23;;;16.70;99.90;;;;;;5051960;28;19916;-69
2023/07/26 10:23:02;;;;;;;2.47;1.30;;;16.70;99.90;;;;;;5069091;28;20123;-69
2023/07/26 10:25:29;;;;;;;3.63;1.25;;;16.60;99.90;;;;;;5028214;28;20052;-69
2023/07/26 10:27:56;;;;;;;2.30;0.88;;;16.50;99.90;;;;;;5049621;28;20048;-69
2023/07/26 10:30:21;;;;;;;2.58;1.20;;;16.40;99.90;;;;;;5055185;28;20486;-69
2023/07/26 10:32:48;;;;;;;3.70;1.52;;;16.50;99.90;;;;;;5050352;28;20093;-69
2023/07/26 10:35:24;;;;;;;;;;;16.60;99.90;;;;;;5040901;28;20427;-69
2023/07/26 10:37:51;;;;;;;3.05;1.23;;;16.70;99.90;;;;;;5065564;28;20437;-69
2023/07/26 10:40:36;;;;;;;3.58;1.50;;;16.90;99.90;;;;;;5046922;28;20498;-69
2023/07/26 10:43:19;;;;;;;3.95;1.30;;;17.10;99.90;;;;;;5051697;28;20343;-69
2023/07/26 10:45:52;;;;;;;3.85;1.33;;;17.30;99.90;;;;;;5044546;28;20344;-69
2023/07/26 10:48:30;;;;;;;2.20;1.10;;;17.40;99.90;;;;;;5042716;28;20147;-68
2023/07/26 10:51:00;;;;;;;3.65;1.08;;;17.70;99.90;;;;;;5047766;28;20796;-69
2023/07/26 10:53:43;;;;;;;1.98;0.90;;;17.90;99.90;;;;;;5051116;28;20045;-68
2023/07/26 10:56:11;;;;;;;2.00;1.00;;;18.10;99.90;;;;;;5043919;28;20051;-69
2023/07/26 10:58:45;;;;;;;2.97;0.88;;;18.30;99.90;;;;;;5066652;28;20519;-69
2023/07/26 11:01:29;;;;;;;2.72;0.95;;;18.30;99.90;;;;;;5052184;28;20463;-69
2023/07/26 11:03:59;;;;;;;2.88;1.25;;;18.20;99.90;;;;;;5049803;28;20047;-69
2023/07/26 11:06:51;;;;;;;2.65;1.20;;;18.20;99.90;;;;;;5044760;28;20067;-69
2023/07/26 11:09:25;;;;;;;2.40;1.10;;;18.00;99.90;;;;;;5042977;28;20036;-69
2023/07/26 11:11:55;;;;;;;1.70;1.05;;;18.10;99.90;;;;;;5043413;28;20218;-69
2023/07/26 11:14:22;;;;;;;4.38;1.10;;;18.20;99.90;;;;;;5045372;28;20067;-69
2023/07/26 11:16:47;;;;;;;7.00;1.17;;;18.40;99.90;;;;;;5032442;28;20047;-69
2023/07/26 11:19:14;;;;;;;4.32;1.20;;;18.50;99.90;;;;;;5049981;28;20044;-69
2023/07/26 11:21:42;;;;;;;3.15;1.30;;;18.50;99.90;;;;;;5047488;28;20118;-69
2023/07/26 11:24:09;;;;;;;5.40;1.45;;;18.50;99.90;;;;;;5060576;28;20570;-69
2023/07/26 11:26:45;;;;;;;2.35;0.98;;;18.40;99.90;;;;;;5047412;28;20041;-72
2023/07/26 11:29:11;;;;;;;3.58;1.08;;;18.40;99.90;;;;;;5051233;28;20042;-70
2023/07/26 11:31:37;;;;;;;2.00;0.98;;;18.40;99.90;;;;;;5043926;28;20048;-70
2023/07/26 11:34:17;;;;;;;5.32;1.42;;;18.40;99.90;;;;;;5050411;28;20055;-70
2023/07/26 11:36:43;;;;;;;4.82;1.63;;;18.30;99.90;;;;;;5049461;28;20047;-70
2023/07/26 11:39:19;;;;;;;2.65;1.08;;;18.20;99.90;;;;;;5062173;28;20040;-69
2023/07/26 11:41:45;;;;;;;1.85;1.08;;;18.10;99.90;;;;;;5046977;28;20222;-70
2023/07/26 11:44:11;;;;;;;;;;;18.10;99.90;;;;;;5034798;28;20032;-71
2023/07/26 11:46:37;;;;;;;2.40;1.08;;;18.00;99.90;;;;;;5054477;28;19916;-72
2023/07/26 11:49:03;;;;;;;;;;;17.90;99.90;;;;;;5053370;28;20084;-70
2023/07/26 11:51:32;;;;;;;4.03;1.27;;;18.00;99.90;;;;;;5052243;28;20002;-70
2023/07/26 11:53:58;;;;;;;5.32;1.17;;;18.30;99.90;;;;;;5061152;28;20051;-70
2023/07/26 11:56:30;;;;;;;4.35;1.30;;;18.50;99.90;;;;;;5048228;28;20421;-73
2023/07/26 11:58:58;;;;;;;3.47;1.35;;;18.60;99.90;;;;;;5046796;28;20044;-70
2023/07/26 12:01:24;;;;;;;2.33;1.17;;;18.70;99.90;;;;;;5050619;28;20040;-70
2023/07/26 12:03:51;;;;;;;4.10;1.40;;;18.70;99.90;;;;;;5049577;28;20047;-69
2023/07/26 12:06:19;;;;;;;1.58;0.80;;;18.80;99.90;;;;;;5024135;28;20044;-73
2023/07/26 12:08:47;;;;;;;2.25;0.90;;;18.80;99.90;;;;;;5050171;28;20033;-71
2023/07/26 12:11:17;;;;;;;3.88;1.00;;;18.70;99.90;;;;;;5052202;28;20048;-71
2023/07/26 12:13:43;;;;;;;1.65;0.82;;;18.70;99.90;;;;;;5048958;28;20067;-70
2023/07/26 12:16:09;;;;;;;2.00;0.98;;;18.70;99.90;;;;;;5067019;28;20053;-70
2023/07/26 12:18:35;;;;;;;2.50;0.98;;;18.70;99.90;;;;;;5041883;28;20137;-70
2023/07/26 12:21:05;;;;;;;1.50;0.80;;;18.70;99.90;;;;;;5047261;28;20490;-70
2023/07/26 12:24:04;;;;;;;3.83;1.35;;;18.70;99.90;;;;;;5046105;28;20041;-70
2023/07/26 12:26:35;;;;;;;2.97;0.80;;;18.70;99.90;;;;;;5049436;28;20046;-72
2023/07/26 12:29:03;;;;;;;2.88;0.93;;;18.70;99.90;;;;;;5047736;28;20481;-71
2023/07/26 12:31:31;;;;;;;1.40;0.70;;;18.80;99.90;;;;;;5058078;28;20175;-71
2023/07/26 12:34:02;;;;;;;5.07;1.10;;;18.80;99.90;;;;;;5045376;28;20052;-70
2023/07/26 12:36:50;;;;;;;2.55;0.90;;;19.00;99.90;;;;;;5042372;28;20487;-71
2023/07/26 12:39:20;;;;;;;2.92;1.10;;;19.20;99.90;;;;;;5045623;28;20053;-72
2023/07/26 12:41:46;;;;;;;2.42;0.70;;;19.40;99.90;;;;;;5066687;28;20125;-71
2023/07/26 12:44:12;;;;;;;3.55;1.30;;;19.50;99.90;;;;;;5047528;28;20260;-71
2023/07/26 12:46:39;;;;;;;2.42;0.93;;;19.40;99.90;;;;;;5050087;28;20090;-71
2023/07/26 12:49:06;;;;;;;3.17;1.05;;;19.40;99.90;;;;;;5039348;28;20055;-71